Terryville, New York
Current Conditions -  °F | °C
As of 12:56 AM on Friday 28 Nov 2014 (Local Time) from KISP Reporting Station
Overcast Overcast  
Wind Chill: -3°   Ceiling: 5000
Heat Index:   Visibility: 10mi
Dew Point: -3°   Wind: 12mph
Humidity: 72%   Direction: 320°NW
Pressure: 30.01"   Gusts: NA
Location:  40.91°N, 73.07°W
Report Text: KISP 280556Z AUTO 32010KT 10SM OVC050 02/M03 A3001 RMK AO2 SLP164 60000 T00171028 10028 20017 50001
Loading
Personal Weather Stations






























Interactive Weather Map New forecast layout! Learn more

10-Day Weather Forecast

Advertisements
Track Severe Weather on mobile